sensor_id;sensor_type;location;lat;lon;timestamp;P1;durP1;ratioP1;P2;durP2;ratioP2
11425;SDS011;5769;47.998;7.788;2023-12-28T00:01:13;30.27;;;8.70;;
11425;SDS011;5769;47.998;7.788;2023-12-28T00:03:40;28.73;;;7.90;;
11425;SDS011;5769;47.998;7.788;2023-12-28T00:06:09;28.90;;;8.55;;
11425;SDS011;5769;47.998;7.788;2023-12-28T00:08:38;23.70;;;7.30;;
11425;SDS011;5769;47.998;7.788;2023-12-28T00:11:07;28.92;;;8.40;;
11425;SDS011;5769;47.998;7.788;2023-12-28T00:13:34;22.60;;;7.07;;
11425;SDS011;5769;47.998;7.788;2023-12-28T00:16:02;29.10;;;8.13;;
11425;SDS011;5769;47.998;7.788;2023-12-28T00:18:29;31.00;;;8.32;;
11425;SDS011;5769;47.998;7.788;2023-12-28T00:20:56;24.00;;;7.57;;
11425;SDS011;5769;47.998;7.788;2023-12-28T00:23:24;28.83;;;8.07;;
11425;SDS011;5769;47.998;7.788;2023-12-28T00:25:51;29.17;;;8.25;;
11425;SDS011;5769;47.998;7.788;2023-12-28T00:28:22;28.80;;;8.05;;
11425;SDS011;5769;47.998;7.788;2023-12-28T00:30:49;26.48;;;7.18;;
11425;SDS011;5769;47.998;7.788;2023-12-28T00:33:16;32.75;;;8.00;;
11425;SDS011;5769;47.998;7.788;2023-12-28T00:35:43;27.88;;;7.28;;
11425;SDS011;5769;47.998;7.788;2023-12-28T00:38:09;16.85;;;6.25;;
11425;SDS011;5769;47.998;7.788;2023-12-28T00:40:36;26.67;;;7.60;;
11425;SDS011;5769;47.998;7.788;2023-12-28T00:43:03;27.10;;;7.45;;
11425;SDS011;5769;47.998;7.788;2023-12-28T00:45:38;24.60;;;6.97;;
11425;SDS011;5769;47.998;7.788;2023-12-28T00:48:05;26.50;;;7.20;;
11425;SDS011;5769;47.998;7.788;2023-12-28T00:50:32;24.63;;;7.35;;
11425;SDS011;5769;47.998;7.788;2023-12-28T00:52:59;25.75;;;7.15;;
11425;SDS011;5769;47.998;7.788;2023-12-28T00:55:28;28.00;;;7.30;;
11425;SDS011;5769;47.998;7.788;2023-12-28T00:57:55;21.42;;;6.93;;
11425;SDS011;5769;47.998;7.788;2023-12-28T01:00:21;23.67;;;6.88;;
11425;SDS011;5769;47.998;7.788;2023-12-28T01:02:50;24.63;;;7.25;;
11425;SDS011;5769;47.998;7.788;2023-12-28T01:05:17;24.98;;;6.85;;
11425;SDS011;5769;47.998;7.788;2023-12-28T01:07:46;27.55;;;7.25;;
11425;SDS011;5769;47.998;7.788;2023-12-28T01:10:13;22.70;;;6.75;;
11425;SDS011;5769;47.998;7.788;2023-12-28T01:12:42;27.48;;;6.78;;
11425;SDS011;5769;47.998;7.788;2023-12-28T01:15:10;27.30;;;7.20;;
11425;SDS011;5769;47.998;7.788;2023-12-28T01:17:36;20.83;;;6.65;;
11425;SDS011;5769;47.998;7.788;2023-12-28T01:20:08;31.15;;;7.60;;
11425;SDS011;5769;47.998;7.788;2023-12-28T01:22:35;28.08;;;7.10;;
11425;SDS011;5769;47.998;7.788;2023-12-28T01:25:02;19.98;;;6.05;;
11425;SDS011;5769;47.998;7.788;2023-12-28T01:27:32;24.80;;;6.57;;
11425;SDS011;5769;47.998;7.788;2023-12-28T01:29:59;24.20;;;6.95;;
11425;SDS011;5769;47.998;7.788;2023-12-28T01:32:28;23.98;;;6.90;;
11425;SDS011;5769;47.998;7.788;2023-12-28T01:34:55;19.75;;;5.75;;
11425;SDS011;5769;47.998;7.788;2023-12-28T01:37:23;10.05;;;5.05;;
11425;SDS011;5769;47.998;7.788;2023-12-28T01:39:50;26.40;;;6.93;;
11425;SDS011;5769;47.998;7.788;2023-12-28T01:42:17;22.63;;;6.75;;
11425;SDS011;5769;47.998;7.788;2023-12-28T01:44:44;15.25;;;5.57;;
11425;SDS011;5769;47.998;7.788;2023-12-28T01:47:13;15.43;;;6.07;;
11425;SDS011;5769;47.998;7.788;2023-12-28T01:49:43;16.10;;;5.65;;
11425;SDS011;5769;47.998;7.788;2023-12-28T01:52:12;25.50;;;6.55;;
11425;SDS011;5769;47.998;7.788;2023-12-28T01:54:40;20.33;;;6.30;;
11425;SDS011;5769;47.998;7.788;2023-12-28T01:57:07;22.30;;;6.57;;
11425;SDS011;5769;47.998;7.788;2023-12-28T01:59:37;20.08;;;5.72;;
11425;SDS011;5769;47.998;7.788;2023-12-28T02:02:04;25.45;;;6.57;;
11425;SDS011;5769;47.998;7.788;2023-12-28T02:04:34;19.48;;;5.63;;
11425;SDS011;5769;47.998;7.788;2023-12-28T02:07:01;19.20;;;5.93;;
11425;SDS011;5769;47.998;7.788;2023-12-28T02:09:28;18.13;;;5.75;;
11425;SDS011;5769;47.998;7.788;2023-12-28T02:11:56;22.20;;;6.28;;
11425;SDS011;5769;47.998;7.788;2023-12-28T02:14:23;21.80;;;6.07;;
11425;SDS011;5769;47.998;7.788;2023-12-28T02:16:52;21.23;;;5.68;;
11425;SDS011;5769;47.998;7.788;2023-12-28T02:19:30;15.45;;;5.85;;
11425;SDS011;5769;47.998;7.788;2023-12-28T02:22:01;17.65;;;5.47;;
11425;SDS011;5769;47.998;7.788;2023-12-28T02:24:31;19.42;;;5.63;;
11425;SDS011;5769;47.998;7.788;2023-12-28T02:27:01;22.27;;;6.18;;
11425;SDS011;5769;47.998;7.788;2023-12-28T02:29:30;21.00;;;5.75;;
11425;SDS011;5769;47.998;7.788;2023-12-28T02:32:00;23.45;;;6.10;;
11425;SDS011;5769;47.998;7.788;2023-12-28T02:34:31;10.77;;;4.90;;
11425;SDS011;5769;47.998;7.788;2023-12-28T02:37:03;10.32;;;5.00;;
11425;SDS011;5769;47.998;7.788;2023-12-28T02:39:31;20.70;;;5.60;;
11425;SDS011;5769;47.998;7.788;2023-12-28T02:42:00;10.25;;;4.88;;
11425;SDS011;5769;47.998;7.788;2023-12-28T02:44:27;9.65;;;4.50;;
11425;SDS011;5769;47.998;7.788;2023-12-28T02:46:54;17.33;;;5.57;;
11425;SDS011;5769;47.998;7.788;2023-12-28T02:49:21;19.83;;;5.80;;
11425;SDS011;5769;47.998;7.788;2023-12-28T02:51:48;10.20;;;4.60;;
11425;SDS011;5769;47.998;7.788;2023-12-28T02:54:18;11.82;;;4.95;;
11425;SDS011;5769;47.998;7.788;2023-12-28T02:56:44;22.48;;;5.93;;
11425;SDS011;5769;47.998;7.788;2023-12-28T02:59:16;20.83;;;6.07;;
11425;SDS011;5769;47.998;7.788;2023-12-28T03:01:45;10.35;;;4.80;;
11425;SDS011;5769;47.998;7.788;2023-12-28T03:04:12;19.50;;;5.50;;
11425;SDS011;5769;47.998;7.788;2023-12-28T03:06:39;20.90;;;6.07;;
11425;SDS011;5769;47.998;7.788;2023-12-28T03:09:06;24.02;;;5.85;;
11425;SDS011;5769;47.998;7.788;2023-12-28T03:11:36;11.52;;;4.55;;
11425;SDS011;5769;47.998;7.788;2023-12-28T03:14:03;9.43;;;4.30;;
11425;SDS011;5769;47.998;7.788;2023-12-28T03:16:33;22.50;;;5.78;;
11425;SDS011;5769;47.998;7.788;2023-12-28T03:19:02;10.32;;;4.55;;
11425;SDS011;5769;47.998;7.788;2023-12-28T03:21:31;10.82;;;4.32;;
11425;SDS011;5769;47.998;7.788;2023-12-28T03:23:58;18.08;;;5.53;;
11425;SDS011;5769;47.998;7.788;2023-12-28T03:26:25;19.83;;;5.32;;
11425;SDS011;5769;47.998;7.788;2023-12-28T03:28:51;9.75;;;4.75;;
11425;SDS011;5769;47.998;7.788;2023-12-28T03:31:21;17.88;;;5.25;;
11425;SDS011;5769;47.998;7.788;2023-12-28T03:33:49;21.40;;;5.78;;
11425;SDS011;5769;47.998;7.788;2023-12-28T03:36:19;14.60;;;5.03;;
11425;SDS011;5769;47.998;7.788;2023-12-28T03:38:46;10.98;;;4.63;;
11425;SDS011;5769;47.998;7.788;2023-12-28T03:41:16;19.98;;;5.28;;
11425;SDS011;5769;47.998;7.788;2023-12-28T03:43:45;9.75;;;4.43;;
11425;SDS011;5769;47.998;7.788;2023-12-28T03:46:16;18.98;;;5.38;;
11425;SDS011;5769;47.998;7.788;2023-12-28T03:48:42;9.68;;;4.40;;
11425;SDS011;5769;47.998;7.788;2023-12-28T03:51:14;10.38;;;4.40;;
11425;SDS011;5769;47.998;7.788;2023-12-28T03:53:44;19.52;;;5.05;;
11425;SDS011;5769;47.998;7.788;2023-12-28T03:56:18;21.38;;;5.22;;
11425;SDS011;5769;47.998;7.788;2023-12-28T03:58:46;9.60;;;4.25;;
11425;SDS011;5769;47.998;7.788;2023-12-28T04:01:18;10.02;;;4.10;;
11425;SDS011;5769;47.998;7.788;2023-12-28T04:03:46;8.18;;;4.00;;
11425;SDS011;5769;47.998;7.788;2023-12-28T04:06:17;8.05;;;4.10;;
11425;SDS011;5769;47.998;7.788;2023-12-28T04:08:44;9.15;;;4.40;;
11425;SDS011;5769;47.998;7.788;2023-12-28T04:11:11;20.58;;;5.05;;
11425;SDS011;5769;47.998;7.788;2023-12-28T04:13:38;8.65;;;4.10;;
11425;SDS011;5769;47.998;7.788;2023-12-28T04:16:05;9.82;;;3.97;;
11425;SDS011;5769;47.998;7.788;2023-12-28T04:18:34;21.70;;;4.88;;
11425;SDS011;5769;47.998;7.788;2023-12-28T04:21:04;10.00;;;4.25;;
11425;SDS011;5769;47.998;7.788;2023-12-28T04:23:38;15.77;;;4.75;;
11425;SDS011;5769;47.998;7.788;2023-12-28T04:26:08;9.05;;;4.00;;
11425;SDS011;5769;47.998;7.788;2023-12-28T04:28:40;8.00;;;3.53;;
11425;SDS011;5769;47.998;7.788;2023-12-28T04:31:07;8.93;;;3.80;;
11425;SDS011;5769;47.998;7.788;2023-12-28T04:33:34;8.77;;;3.90;;
11425;SDS011;5769;47.998;7.788;2023-12-28T04:36:01;8.98;;;3.88;;
11425;SDS011;5769;47.998;7.788;2023-12-28T04:38:31;8.13;;;3.80;;
11425;SDS011;5769;47.998;7.788;2023-12-28T04:40:59;7.47;;;3.45;;
11425;SDS011;5769;47.998;7.788;2023-12-28T04:43:28;10.73;;;4.18;;
11425;SDS011;5769;47.998;7.788;2023-12-28T04:45:54;10.23;;;3.90;;
11425;SDS011;5769;47.998;7.788;2023-12-28T04:48:23;9.75;;;3.70;;
11425;SDS011;5769;47.998;7.788;2023-12-28T04:50:51;9.10;;;3.92;;
11425;SDS011;5769;47.998;7.788;2023-12-28T04:53:21;9.40;;;3.80;;
11425;SDS011;5769;47.998;7.788;2023-12-28T04:55:47;8.80;;;3.80;;
11425;SDS011;5769;47.998;7.788;2023-12-28T04:58:19;9.18;;;3.58;;
11425;SDS011;5769;47.998;7.788;2023-12-28T05:00:45;8.88;;;3.58;;
11425;SDS011;5769;47.998;7.788;2023-12-28T05:03:15;7.82;;;3.55;;
11425;SDS011;5769;47.998;7.788;2023-12-28T05:05:42;7.85;;;3.60;;
11425;SDS011;5769;47.998;7.788;2023-12-28T05:08:09;8.55;;;3.35;;
11425;SDS011;5769;47.998;7.788;2023-12-28T05:10:35;9.18;;;3.78;;
11425;SDS011;5769;47.998;7.788;2023-12-28T05:13:02;7.18;;;3.80;;
11425;SDS011;5769;47.998;7.788;2023-12-28T05:15:31;8.23;;;3.40;;
11425;SDS011;5769;47.998;7.788;2023-12-28T05:18:00;9.85;;;3.85;;
11425;SDS011;5769;47.998;7.788;2023-12-28T05:20:27;9.13;;;3.67;;
11425;SDS011;5769;47.998;7.788;2023-12-28T05:22:54;6.90;;;3.03;;
11425;SDS011;5769;47.998;7.788;2023-12-28T05:25:20;7.70;;;3.13;;
11425;SDS011;5769;47.998;7.788;2023-12-28T05:27:47;8.20;;;3.60;;
11425;SDS011;5769;47.998;7.788;2023-12-28T05:30:17;6.53;;;2.97;;
11425;SDS011;5769;47.998;7.788;2023-12-28T05:32:45;8.00;;;3.30;;
11425;SDS011;5769;47.998;7.788;2023-12-28T05:35:11;7.20;;;3.30;;
11425;SDS011;5769;47.998;7.788;2023-12-28T05:37:41;8.90;;;3.42;;
11425;SDS011;5769;47.998;7.788;2023-12-28T05:40:10;7.82;;;3.42;;
11425;SDS011;5769;47.998;7.788;2023-12-28T05:42:37;6.57;;;3.17;;
11425;SDS011;5769;47.998;7.788;2023-12-28T05:45:04;8.38;;;3.22;;
11425;SDS011;5769;47.998;7.788;2023-12-28T05:47:32;7.82;;;3.30;;
11425;SDS011;5769;47.998;7.788;2023-12-28T05:50:00;7.95;;;3.45;;
11425;SDS011;5769;47.998;7.788;2023-12-28T05:52:30;7.55;;;3.40;;
11425;SDS011;5769;47.998;7.788;2023-12-28T05:54:56;7.57;;;3.53;;
11425;SDS011;5769;47.998;7.788;2023-12-28T05:57:23;5.65;;;2.85;;
11425;SDS011;5769;47.998;7.788;2023-12-28T05:59:51;8.57;;;3.80;;
11425;SDS011;5769;47.998;7.788;2023-12-28T06:02:20;7.90;;;3.35;;
11425;SDS011;5769;47.998;7.788;2023-12-28T06:04:47;8.00;;;3.30;;
11425;SDS011;5769;47.998;7.788;2023-12-28T06:07:16;6.70;;;3.28;;
11425;SDS011;5769;47.998;7.788;2023-12-28T06:09:43;7.22;;;3.10;;
11425;SDS011;5769;47.998;7.788;2023-12-28T06:12:11;6.68;;;3.00;;
11425;SDS011;5769;47.998;7.788;2023-12-28T06:14:38;6.88;;;2.67;;
11425;SDS011;5769;47.998;7.788;2023-12-28T06:17:04;6.10;;;2.97;;
11425;SDS011;5769;47.998;7.788;2023-12-28T06:19:33;6.75;;;3.30;;
11425;SDS011;5769;47.998;7.788;2023-12-28T06:22:02;7.20;;;3.22;;
11425;SDS011;5769;47.998;7.788;2023-12-28T06:24:30;7.43;;;3.15;;
11425;SDS011;5769;47.998;7.788;2023-12-28T06:26:57;7.18;;;3.13;;
11425;SDS011;5769;47.998;7.788;2023-12-28T06:29:24;6.80;;;2.90;;
11425;SDS011;5769;47.998;7.788;2023-12-28T06:31:50;6.25;;;2.72;;
11425;SDS011;5769;47.998;7.788;2023-12-28T06:34:17;7.22;;;3.10;;
11425;SDS011;5769;47.998;7.788;2023-12-28T06:36:44;7.88;;;3.17;;
11425;SDS011;5769;47.998;7.788;2023-12-28T06:39:13;6.97;;;3.10;;
11425;SDS011;5769;47.998;7.788;2023-12-28T06:41:41;8.10;;;3.13;;
11425;SDS011;5769;47.998;7.788;2023-12-28T06:44:07;6.13;;;2.83;;
11425;SDS011;5769;47.998;7.788;2023-12-28T06:46:38;7.00;;;2.95;;
11425;SDS011;5769;47.998;7.788;2023-12-28T06:49:05;5.97;;;3.00;;
11425;SDS011;5769;47.998;7.788;2023-12-28T06:51:32;5.95;;;2.97;;
11425;SDS011;5769;47.998;7.788;2023-12-28T06:53:58;5.80;;;2.55;;
11425;SDS011;5769;47.998;7.788;2023-12-28T06:56:25;6.05;;;2.78;;
11425;SDS011;5769;47.998;7.788;2023-12-28T06:58:53;6.28;;;2.97;;
11425;SDS011;5769;47.998;7.788;2023-12-28T07:01:20;6.25;;;2.80;;
11425;SDS011;5769;47.998;7.788;2023-12-28T07:03:47;4.72;;;2.60;;
11425;SDS011;5769;47.998;7.788;2023-12-28T07:06:14;5.78;;;2.70;;
11425;SDS011;5769;47.998;7.788;2023-12-28T07:08:46;18.95;;;4.05;;
11425;SDS011;5769;47.998;7.788;2023-12-28T07:11:13;4.95;;;2.58;;
11425;SDS011;5769;47.998;7.788;2023-12-28T07:13:39;6.70;;;3.00;;
11425;SDS011;5769;47.998;7.788;2023-12-28T07:16:07;6.25;;;2.95;;
11425;SDS011;5769;47.998;7.788;2023-12-28T07:18:37;5.97;;;2.80;;
11425;SDS011;5769;47.998;7.788;2023-12-28T07:21:04;5.70;;;2.70;;
11425;SDS011;5769;47.998;7.788;2023-12-28T07:23:34;5.40;;;2.58;;
11425;SDS011;5769;47.998;7.788;2023-12-28T07:26:01;19.42;;;3.90;;
11425;SDS011;5769;47.998;7.788;2023-12-28T07:28:28;4.72;;;2.70;;
11425;SDS011;5769;47.998;7.788;2023-12-28T07:30:55;7.28;;;2.85;;
11425;SDS011;5769;47.998;7.788;2023-12-28T07:33:23;5.53;;;2.60;;
11425;SDS011;5769;47.998;7.788;2023-12-28T07:35:50;6.35;;;2.72;;
11425;SDS011;5769;47.998;7.788;2023-12-28T07:38:17;7.65;;;3.15;;
11425;SDS011;5769;47.998;7.788;2023-12-28T07:40:43;6.38;;;2.78;;
11425;SDS011;5769;47.998;7.788;2023-12-28T07:43:10;6.28;;;2.65;;
11425;SDS011;5769;47.998;7.788;2023-12-28T07:45:37;6.80;;;3.00;;
11425;SDS011;5769;47.998;7.788;2023-12-28T07:48:04;7.10;;;3.13;;
11425;SDS011;5769;47.998;7.788;2023-12-28T07:50:33;5.05;;;2.22;;
11425;SDS011;5769;47.998;7.788;2023-12-28T07:53:00;6.45;;;2.70;;
11425;SDS011;5769;47.998;7.788;2023-12-28T07:55:26;5.72;;;2.65;;
11425;SDS011;5769;47.998;7.788;2023-12-28T07:57:53;5.15;;;2.50;;
11425;SDS011;5769;47.998;7.788;2023-12-28T08:00:19;5.57;;;2.65;;
11425;SDS011;5769;47.998;7.788;2023-12-28T08:02:46;7.20;;;2.97;;
11425;SDS011;5769;47.998;7.788;2023-12-28T08:05:12;4.40;;;2.40;;
11425;SDS011;5769;47.998;7.788;2023-12-28T08:07:41;5.68;;;2.22;;
11425;SDS011;5769;47.998;7.788;2023-12-28T08:10:08;5.40;;;2.50;;
11425;SDS011;5769;47.998;7.788;2023-12-28T08:12:35;5.82;;;2.50;;
11425;SDS011;5769;47.998;7.788;2023-12-28T08:15:02;6.40;;;2.75;;
11425;SDS011;5769;47.998;7.788;2023-12-28T08:17:29;6.28;;;2.65;;
11425;SDS011;5769;47.998;7.788;2023-12-28T08:19:56;5.47;;;2.30;;
11425;SDS011;5769;47.998;7.788;2023-12-28T08:22:23;5.28;;;2.50;;
11425;SDS011;5769;47.998;7.788;2023-12-28T08:24:51;6.38;;;2.80;;
11425;SDS011;5769;47.998;7.788;2023-12-28T08:27:18;4.32;;;2.30;;
11425;SDS011;5769;47.998;7.788;2023-12-28T08:29:44;5.30;;;2.30;;
11425;SDS011;5769;47.998;7.788;2023-12-28T08:32:11;4.35;;;2.28;;
11425;SDS011;5769;47.998;7.788;2023-12-28T08:34:38;4.32;;;2.25;;
11425;SDS011;5769;47.998;7.788;2023-12-28T08:37:04;4.68;;;2.10;;
11425;SDS011;5769;47.998;7.788;2023-12-28T08:39:31;4.60;;;2.20;;
11425;SDS011;5769;47.998;7.788;2023-12-28T08:42:02;4.38;;;2.20;;
11425;SDS011;5769;47.998;7.788;2023-12-28T08:44:29;4.93;;;2.40;;
11425;SDS011;5769;47.998;7.788;2023-12-28T08:46:58;5.78;;;2.67;;
11425;SDS011;5769;47.998;7.788;2023-12-28T08:49:29;4.55;;;2.30;;
11425;SDS011;5769;47.998;7.788;2023-12-28T08:52:02;4.72;;;2.33;;
11425;SDS011;5769;47.998;7.788;2023-12-28T08:54:30;5.07;;;2.20;;
11425;SDS011;5769;47.998;7.788;2023-12-28T08:56:57;5.57;;;2.10;;
11425;SDS011;5769;47.998;7.788;2023-12-28T08:59:25;5.00;;;2.33;;
11425;SDS011;5769;47.998;7.788;2023-12-28T09:01:53;4.50;;;2.38;;
11425;SDS011;5769;47.998;7.788;2023-12-28T09:04:19;4.97;;;2.25;;
11425;SDS011;5769;47.998;7.788;2023-12-28T09:06:46;4.63;;;2.17;;
11425;SDS011;5769;47.998;7.788;2023-12-28T09:09:16;5.03;;;2.25;;
11425;SDS011;5769;47.998;7.788;2023-12-28T09:11:45;5.10;;;2.35;;
11425;SDS011;5769;47.998;7.788;2023-12-28T09:14:17;4.97;;;2.28;;
11425;SDS011;5769;47.998;7.788;2023-12-28T09:16:46;5.03;;;2.30;;
11425;SDS011;5769;47.998;7.788;2023-12-28T09:19:13;3.80;;;2.10;;
11425;SDS011;5769;47.998;7.788;2023-12-28T09:21:49;4.32;;;2.08;;
11425;SDS011;5769;47.998;7.788;2023-12-28T09:24:17;4.95;;;2.20;;
11425;SDS011;5769;47.998;7.788;2023-12-28T09:26:46;4.07;;;2.08;;
11425;SDS011;5769;47.998;7.788;2023-12-28T09:29:13;4.35;;;1.88;;
11425;SDS011;5769;47.998;7.788;2023-12-28T09:31:40;3.83;;;2.13;;
11425;SDS011;5769;47.998;7.788;2023-12-28T09:34:13;4.15;;;2.10;;
11425;SDS011;5769;47.998;7.788;2023-12-28T09:36:40;5.35;;;2.25;;
11425;SDS011;5769;47.998;7.788;2023-12-28T09:39:07;4.38;;;2.10;;
11425;SDS011;5769;47.998;7.788;2023-12-28T09:41:35;5.10;;;2.20;;
11425;SDS011;5769;47.998;7.788;2023-12-28T09:44:07;5.35;;;2.30;;
11425;SDS011;5769;47.998;7.788;2023-12-28T09:46:39;3.70;;;1.85;;
11425;SDS011;5769;47.998;7.788;2023-12-28T09:49:07;4.25;;;1.80;;
11425;SDS011;5769;47.998;7.788;2023-12-28T09:51:35;4.07;;;1.90;;
11425;SDS011;5769;47.998;7.788;2023-12-28T09:54:02;4.15;;;1.90;;
11425;SDS011;5769;47.998;7.788;2023-12-28T09:56:30;15.10;;;2.67;;
11425;SDS011;5769;47.998;7.788;2023-12-28T09:58:59;6.38;;;2.22;;
11425;SDS011;5769;47.998;7.788;2023-12-28T10:01:31;5.22;;;2.00;;
11425;SDS011;5769;47.998;7.788;2023-12-28T10:03:58;4.53;;;2.00;;
11425;SDS011;5769;47.998;7.788;2023-12-28T10:06:25;5.13;;;1.95;;
11425;SDS011;5769;47.998;7.788;2023-12-28T10:08:56;6.18;;;2.08;;
11425;SDS011;5769;47.998;7.788;2023-12-28T10:11:24;3.70;;;1.95;;
11425;SDS011;5769;47.998;7.788;2023-12-28T10:13:54;4.68;;;1.75;;
11425;SDS011;5769;47.998;7.788;2023-12-28T10:16:22;3.95;;;2.00;;
11425;SDS011;5769;47.998;7.788;2023-12-28T10:18:49;3.60;;;1.70;;
11425;SDS011;5769;47.998;7.788;2023-12-28T10:21:16;4.82;;;2.00;;
11425;SDS011;5769;47.998;7.788;2023-12-28T10:23:43;4.15;;;1.90;;
11425;SDS011;5769;47.998;7.788;2023-12-28T10:26:14;6.00;;;1.98;;
11425;SDS011;5769;47.998;7.788;2023-12-28T10:28:46;5.18;;;2.05;;
11425;SDS011;5769;47.998;7.788;2023-12-28T10:31:16;5.65;;;1.95;;
11425;SDS011;5769;47.998;7.788;2023-12-28T10:33:43;4.70;;;1.83;;
11425;SDS011;5769;47.998;7.788;2023-12-28T10:36:11;4.82;;;1.90;;
11425;SDS011;5769;47.998;7.788;2023-12-28T10:38:41;3.00;;;1.80;;
11425;SDS011;5769;47.998;7.788;2023-12-28T10:41:15;3.72;;;1.90;;
11425;SDS011;5769;47.998;7.788;2023-12-28T10:43:45;4.40;;;1.80;;
11425;SDS011;5769;47.998;7.788;2023-12-28T10:46:20;3.85;;;1.60;;
11425;SDS011;5769;47.998;7.788;2023-12-28T10:48:52;4.97;;;1.75;;
11425;SDS011;5769;47.998;7.788;2023-12-28T10:51:25;3.38;;;1.63;;
11425;SDS011;5769;47.998;7.788;2023-12-28T10:53:54;3.58;;;1.63;;
11425;SDS011;5769;47.998;7.788;2023-12-28T10:56:32;3.90;;;1.83;;
11425;SDS011;5769;47.998;7.788;2023-12-28T10:59:05;4.57;;;1.70;;
11425;SDS011;5769;47.998;7.788;2023-12-28T11:01:43;4.07;;;1.70;;
11425;SDS011;5769;47.998;7.788;2023-12-28T11:04:15;4.82;;;1.83;;
11425;SDS011;5769;47.998;7.788;2023-12-28T11:06:49;3.05;;;1.63;;
11425;SDS011;5769;47.998;7.788;2023-12-28T11:09:16;4.03;;;1.83;;
11425;SDS011;5769;47.998;7.788;2023-12-28T11:11:50;3.45;;;1.77;;
11425;SDS011;5769;47.998;7.788;2023-12-28T11:14:19;3.30;;;1.60;;
11425;SDS011;5769;47.998;7.788;2023-12-28T11:16:47;4.35;;;1.58;;
11425;SDS011;5769;47.998;7.788;2023-12-28T11:19:16;4.57;;;1.70;;
11425;SDS011;5769;47.998;7.788;2023-12-28T11:21:43;4.07;;;1.80;;
11425;SDS011;5769;47.998;7.788;2023-12-28T11:24:12;3.78;;;1.77;;
11425;SDS011;5769;47.998;7.788;2023-12-28T11:26:39;3.50;;;1.63;;
11425;SDS011;5769;47.998;7.788;2023-12-28T11:29:09;4.50;;;1.90;;
11425;SDS011;5769;47.998;7.788;2023-12-28T11:31:38;3.55;;;1.60;;
11425;SDS011;5769;47.998;7.788;2023-12-28T11:34:05;3.28;;;1.73;;
11425;SDS011;5769;47.998;7.788;2023-12-28T11:36:40;3.45;;;1.67;;
11425;SDS011;5769;47.998;7.788;2023-12-28T11:39:11;3.75;;;1.60;;
11425;SDS011;5769;47.998;7.788;2023-12-28T11:41:38;3.33;;;1.52;;
11425;SDS011;5769;47.998;7.788;2023-12-28T11:44:09;3.42;;;1.55;;
11425;SDS011;5769;47.998;7.788;2023-12-28T11:46:37;3.28;;;1.55;;
11425;SDS011;5769;47.998;7.788;2023-12-28T11:49:04;3.08;;;1.52;;
11425;SDS011;5769;47.998;7.788;2023-12-28T11:51:32;4.00;;;1.35;;
11425;SDS011;5769;47.998;7.788;2023-12-28T11:54:01;3.95;;;1.73;;
11425;SDS011;5769;47.998;7.788;2023-12-28T11:56:28;3.85;;;1.70;;
11425;SDS011;5769;47.998;7.788;2023-12-28T11:58:55;4.38;;;1.80;;
11425;SDS011;5769;47.998;7.788;2023-12-28T12:01:24;2.88;;;1.38;;
11425;SDS011;5769;47.998;7.788;2023-12-28T12:03:51;2.60;;;1.40;;
11425;SDS011;5769;47.998;7.788;2023-12-28T12:06:20;3.25;;;1.50;;
11425;SDS011;5769;47.998;7.788;2023-12-28T12:08:48;2.95;;;1.33;;
11425;SDS011;5769;47.998;7.788;2023-12-28T12:11:17;15.60;;;2.55;;
11425;SDS011;5769;47.998;7.788;2023-12-28T12:13:46;3.80;;;1.50;;
11425;SDS011;5769;47.998;7.788;2023-12-28T12:16:16;3.05;;;1.50;;
11425;SDS011;5769;47.998;7.788;2023-12-28T12:18:45;3.58;;;1.50;;
11425;SDS011;5769;47.998;7.788;2023-12-28T12:21:12;2.88;;;1.42;;
11425;SDS011;5769;47.998;7.788;2023-12-28T12:23:40;3.55;;;1.33;;
11425;SDS011;5769;47.998;7.788;2023-12-28T12:26:06;2.63;;;1.45;;
11425;SDS011;5769;47.998;7.788;2023-12-28T12:28:33;4.47;;;1.52;;
11425;SDS011;5769;47.998;7.788;2023-12-28T12:31:00;4.40;;;1.40;;
11425;SDS011;5769;47.998;7.788;2023-12-28T12:33:29;4.07;;;1.20;;
11425;SDS011;5769;47.998;7.788;2023-12-28T12:36:01;3.70;;;1.60;;
11425;SDS011;5769;47.998;7.788;2023-12-28T12:38:31;2.10;;;1.20;;
11425;SDS011;5769;47.998;7.788;2023-12-28T12:41:05;3.35;;;1.38;;
11425;SDS011;5769;47.998;7.788;2023-12-28T12:43:40;6.95;;;1.50;;
11425;SDS011;5769;47.998;7.788;2023-12-28T12:46:15;2.67;;;1.38;;
11425;SDS011;5769;47.998;7.788;2023-12-28T12:48:53;4.50;;;1.40;;
11425;SDS011;5769;47.998;7.788;2023-12-28T12:51:23;4.25;;;1.60;;
11425;SDS011;5769;47.998;7.788;2023-12-28T12:53:55;2.58;;;1.40;;
11425;SDS011;5769;47.998;7.788;2023-12-28T12:56:25;2.38;;;1.20;;
11425;SDS011;5769;47.998;7.788;2023-12-28T12:58:53;3.47;;;1.40;;
11425;SDS011;5769;47.998;7.788;2023-12-28T13:01:23;2.83;;;1.40;;
11425;SDS011;5769;47.998;7.788;2023-12-28T13:03:50;3.63;;;1.15;;
11425;SDS011;5769;47.998;7.788;2023-12-28T13:06:20;3.05;;;1.38;;
11425;SDS011;5769;47.998;7.788;2023-12-28T13:08:49;2.92;;;1.33;;
11425;SDS011;5769;47.998;7.788;2023-12-28T13:11:16;2.60;;;1.20;;
11425;SDS011;5769;47.998;7.788;2023-12-28T13:13:44;3.97;;;1.40;;
11425;SDS011;5769;47.998;7.788;2023-12-28T13:16:12;3.03;;;1.27;;
11425;SDS011;5769;47.998;7.788;2023-12-28T13:18:39;3.03;;;1.45;;
11425;SDS011;5769;47.998;7.788;2023-12-28T13:21:06;3.97;;;1.55;;
11425;SDS011;5769;47.998;7.788;2023-12-28T13:23:32;2.78;;;1.52;;
11425;SDS011;5769;47.998;7.788;2023-12-28T13:26:03;2.05;;;1.25;;
11425;SDS011;5769;47.998;7.788;2023-12-28T13:28:30;2.33;;;1.23;;
11425;SDS011;5769;47.998;7.788;2023-12-28T13:30:57;2.42;;;1.30;;
11425;SDS011;5769;47.998;7.788;2023-12-28T13:33:24;2.50;;;1.25;;
11425;SDS011;5769;47.998;7.788;2023-12-28T13:35:51;2.58;;;1.33;;
11425;SDS011;5769;47.998;7.788;2023-12-28T13:38:17;2.67;;;1.25;;
11425;SDS011;5769;47.998;7.788;2023-12-28T13:40:44;2.47;;;1.20;;
11425;SDS011;5769;47.998;7.788;2023-12-28T13:43:12;3.67;;;1.27;;
11425;SDS011;5769;47.998;7.788;2023-12-28T13:45:39;2.03;;;1.15;;
11425;SDS011;5769;47.998;7.788;2023-12-28T13:48:06;1.83;;;1.17;;
11425;SDS011;5769;47.998;7.788;2023-12-28T13:50:34;2.63;;;1.20;;
11425;SDS011;5769;47.998;7.788;2023-12-28T13:53:00;2.22;;;1.30;;
11425;SDS011;5769;47.998;7.788;2023-12-28T13:55:30;3.53;;;1.50;;
11425;SDS011;5769;47.998;7.788;2023-12-28T13:58:01;2.72;;;1.30;;
11425;SDS011;5769;47.998;7.788;2023-12-28T14:00:30;2.05;;;1.17;;
11425;SDS011;5769;47.998;7.788;2023-12-28T14:02:57;2.80;;;1.23;;
11425;SDS011;5769;47.998;7.788;2023-12-28T14:05:24;3.42;;;1.40;;
11425;SDS011;5769;47.998;7.788;2023-12-28T14:07:51;2.33;;;1.20;;
11425;SDS011;5769;47.998;7.788;2023-12-28T14:10:17;2.47;;;1.05;;
11425;SDS011;5769;47.998;7.788;2023-12-28T14:12:44;5.53;;;1.27;;
11425;SDS011;5769;47.998;7.788;2023-12-28T14:15:11;2.78;;;1.25;;
11425;SDS011;5769;47.998;7.788;2023-12-28T14:17:43;2.83;;;1.00;;
11425;SDS011;5769;47.998;7.788;2023-12-28T14:20:11;2.30;;;1.05;;
11425;SDS011;5769;47.998;7.788;2023-12-28T14:22:37;3.17;;;1.35;;
11425;SDS011;5769;47.998;7.788;2023-12-28T14:25:05;3.70;;;1.20;;
11425;SDS011;5769;47.998;7.788;2023-12-28T14:27:39;2.78;;;1.40;;
11425;SDS011;5769;47.998;7.788;2023-12-28T14:30:06;3.22;;;1.27;;
11425;SDS011;5769;47.998;7.788;2023-12-28T14:32:36;3.38;;;1.40;;
11425;SDS011;5769;47.998;7.788;2023-12-28T14:35:05;1.65;;;1.00;;
11425;SDS011;5769;47.998;7.788;2023-12-28T14:37:32;2.70;;;1.23;;
11425;SDS011;5769;47.998;7.788;2023-12-28T14:39:59;2.60;;;1.00;;
11425;SDS011;5769;47.998;7.788;2023-12-28T14:42:31;3.05;;;1.20;;
11425;SDS011;5769;47.998;7.788;2023-12-28T14:44:59;1.67;;;0.90;;
11425;SDS011;5769;47.998;7.788;2023-12-28T14:47:28;2.80;;;1.10;;
11425;SDS011;5769;47.998;7.788;2023-12-28T14:49:55;3.20;;;1.10;;
11425;SDS011;5769;47.998;7.788;2023-12-28T14:52:27;1.83;;;1.10;;
11425;SDS011;5769;47.998;7.788;2023-12-28T14:54:54;2.33;;;1.10;;
11425;SDS011;5769;47.998;7.788;2023-12-28T14:57:24;2.28;;;1.10;;
11425;SDS011;5769;47.998;7.788;2023-12-28T14:59:51;1.50;;;1.02;;
11425;SDS011;5769;47.998;7.788;2023-12-28T15:02:18;3.35;;;1.20;;
11425;SDS011;5769;47.998;7.788;2023-12-28T15:04:49;2.28;;;1.30;;